createdAt,value
2022-10-01T00:12:46.585Z,1520.21667
2022-10-01T00:27:48.951Z,1238.74207
2022-10-01T00:42:51.568Z,975.01801
2022-10-01T00:57:53.848Z,604.7901
2022-10-01T01:12:56.091Z,333.45871
2022-10-01T01:27:58.612Z,114.11134
2022-10-01T01:43:00.999Z,20.28646
2022-10-01T01:58:03.228Z,1.2679
2022-10-01T02:13:05.631Z,0
2022-10-01T02:28:07.972Z,0
2022-10-01T02:43:10.335Z,0
2022-10-01T02:58:12.682Z,0
2022-10-01T03:13:15.184Z,0
2022-10-01T03:28:17.647Z,0
2022-10-01T03:43:19.960Z,0
2022-10-01T03:58:22.194Z,0
2022-10-01T04:13:24.564Z,0
2022-10-01T04:28:26.923Z,0
2022-10-01T04:43:29.633Z,0
2022-10-01T04:58:31.933Z,0
2022-10-01T05:13:34.180Z,0
2022-10-01T05:28:36.612Z,0
2022-10-01T05:43:39.057Z,0
2022-10-01T05:58:41.398Z,0
2022-10-01T06:13:43.649Z,0
2022-10-01T06:28:45.975Z,0
2022-10-01T06:43:48.261Z,0
2022-10-01T06:58:50.556Z,0
2022-10-01T07:13:54.727Z,0
2022-10-01T07:28:57.340Z,0
2022-10-01T07:43:59.628Z,0
2022-10-01T07:59:02.005Z,0
2022-10-01T08:14:04.350Z,0
2022-10-01T08:29:06.701Z,0
2022-10-01T08:44:09.035Z,0
2022-10-01T08:59:11.345Z,0
2022-10-01T09:14:13.791Z,0
2022-10-01T09:29:16.067Z,0
2022-10-01T09:44:19.020Z,0
2022-10-01T09:59:21.435Z,0
2022-10-01T10:14:23.708Z,0
2022-10-01T10:29:26.003Z,0
2022-10-01T10:44:28.376Z,0
2022-10-01T10:59:30.720Z,0
2022-10-01T11:14:33.007Z,0
2022-10-01T11:29:35.372Z,0
2022-10-01T11:44:37.660Z,0
2022-10-01T11:59:39.904Z,0
2022-10-01T12:14:42.256Z,0
2022-10-01T12:29:44.557Z,0
2022-10-01T12:44:46.832Z,0
2022-10-01T12:59:49.107Z,0
2022-10-01T13:14:51.423Z,0
2022-10-01T13:29:53.729Z,7.60742
2022-10-01T13:44:55.982Z,83.68165
2022-10-01T13:59:58.251Z,310.63644
2022-10-01T14:15:00.545Z,668.1853
2022-10-01T14:30:02.836Z,1307.20886
2022-10-01T14:45:05.151Z,2500.3064
2022-10-01T15:00:07.526Z,6818.78662
2022-10-01T15:15:09.819Z,7355.10986
2022-10-01T15:30:12.151Z,7812.82324
2022-10-01T15:45:14.415Z,14906.74512
2022-10-01T16:00:16.887Z,37319.48047
2022-10-01T16:15:19.415Z,31247.49023
2022-10-01T16:30:21.774Z,7977.65088
2022-10-01T16:45:24.097Z,14413.53027
2022-10-01T17:00:26.349Z,9227.80371
2022-10-01T17:15:28.743Z,8084.15479
2022-10-01T17:30:31.039Z,7517.40186
2022-10-01T17:45:33.458Z,7357.646
2022-10-01T18:00:35.806Z,7069.83154
2022-10-01T18:15:38.083Z,7057.15234
2022-10-01T18:30:40.401Z,6723.69385
2022-10-01T18:45:42.788Z,6632.40479
2022-10-01T19:00:45.328Z,6505.61426
2022-10-01T19:15:47.662Z,6467.57715
2022-10-01T19:30:49.959Z,6430.80811
2022-10-01T19:45:52.261Z,6407.98584
2022-10-01T20:00:54.620Z,6329.37598
2022-10-01T20:15:57.211Z,6217.80029
2022-10-01T20:30:59.543Z,6134.11865
2022-10-01T20:46:01.968Z,6101.15332
2022-10-01T21:01:04.482Z,6094.81348
2022-10-01T21:16:07.061Z,6216.53223
2022-10-01T21:31:09.408Z,6192.44238
2022-10-01T21:46:11.816Z,6051.70508
2022-10-01T22:01:14.184Z,5762.62256
2022-10-01T22:16:16.606Z,5434.23584
2022-10-01T22:31:18.994Z,5112.18799
2022-10-01T22:46:21.287Z,4847.19629
2022-10-01T23:01:23.747Z,4527.68457
2022-10-01T23:16:26.217Z,4342.57031
2022-10-01T23:31:28.750Z,3935.57349
2022-10-01T23:46:31.188Z,3401.78589
